createdAt,value
2019-01-06T00:00:48.900Z,-3.63
2019-01-06T00:03:49.522Z,-3.50
2019-01-06T00:06:52.897Z,-3.46
2019-01-06T00:09:53.349Z,-3.46
2019-01-06T00:12:35.007Z,-3.43
2019-01-06T00:15:28.083Z,-3.43
2019-01-06T00:18:15.082Z,-3.39
2019-01-06T00:21:09.452Z,-3.34
2019-01-06T00:24:03.637Z,-3.25
2019-01-06T00:26:55.075Z,-3.25
2019-01-06T00:29:58.563Z,-3.17
2019-01-06T00:32:46.901Z,-3.12
2019-01-06T00:35:33.999Z,-2.96
2019-01-06T00:38:28.709Z,-2.96
2019-01-06T00:41:17.131Z,-3.00
2019-01-06T00:43:58.444Z,-2.77
2019-01-06T00:46:58.915Z,-2.71
2019-01-06T00:49:59.415Z,-2.62
2019-01-06T00:52:59.937Z,-2.68
2019-01-06T00:55:57.293Z,-2.51
2019-01-06T00:58:44.401Z,-2.72
2019-01-06T01:01:31.394Z,-2.58
2019-01-06T01:04:18.396Z,-2.73
2019-01-06T01:07:05.738Z,-2.66
2019-01-06T01:09:53.155Z,-2.82
2019-01-06T01:12:43.521Z,-2.95
2019-01-06T01:15:47.060Z,-3.07
2019-01-06T01:18:38.580Z,-3.03
2019-01-06T01:21:37.195Z,-2.88
2019-01-06T01:24:40.626Z,-3.05
2019-01-06T01:27:31.998Z,-2.95
2019-01-06T01:30:19.300Z,-3.08
2019-01-06T01:33:16.734Z,-3.27
2019-01-06T01:36:11.220Z,-3.16
2019-01-06T01:39:08.832Z,-3.16
2019-01-06T01:42:00.250Z,-3.05
2019-01-06T01:44:47.666Z,-3.09
2019-01-06T01:47:51.158Z,-2.94
2019-01-06T01:50:51.672Z,-3.11
2019-01-06T01:53:43.200Z,-3.04
2019-01-06T01:56:50.254Z,-3.04
2019-01-06T01:59:38.675Z,-3.01
2019-01-06T02:02:27.108Z,-3.25
2019-01-06T02:05:14.100Z,-3.27
2019-01-06T02:08:01.342Z,-3.11
2019-01-06T02:10:52.683Z,-3.18
2019-01-06T02:13:38.994Z,-3.33
2019-01-06T02:16:30.721Z,-3.22
2019-01-06T02:19:18.006Z,-3.33
2019-01-06T02:22:06.431Z,-3.05
2019-01-06T02:25:03.864Z,-3.16
2019-01-06T02:27:51.202Z,-3.26
2019-01-06T02:30:38.381Z,-3.20
2019-01-06T02:33:35.785Z,-3.17
2019-01-06T02:36:23.130Z,-3.14
2019-01-06T02:39:13.232Z,-3.02
2019-01-06T02:42:07.815Z,-3.02
2019-01-06T02:44:58.996Z,-2.96
2019-01-06T02:47:51.212Z,-2.91
2019-01-06T02:50:38.312Z,-2.81
2019-01-06T02:53:42.114Z,-2.85
2019-01-06T02:56:33.329Z,-2.74
2019-01-06T02:59:20.638Z,-2.83
2019-01-06T03:02:27.767Z,-2.83
2019-01-06T03:05:15.274Z,-2.84
2019-01-06T03:08:18.980Z,-2.72
2019-01-06T03:11:04.756Z,-2.54
2019-01-06T03:13:53.179Z,-2.61
2019-01-06T03:16:47.683Z,-2.37
2019-01-06T03:19:45.426Z,-2.40
2019-01-06T03:22:42.926Z,-2.25
2019-01-06T03:25:49.663Z,-2.31
2019-01-06T03:28:38.069Z,-2.42
2019-01-06T03:31:18.797Z,-2.39
2019-01-06T03:34:25.293Z,-2.29
2019-01-06T03:37:12.155Z,-2.18
2019-01-06T03:40:06.437Z,-2.20
2019-01-06T03:42:57.794Z,-2.18
2019-01-06T03:45:45.005Z,-2.18
2019-01-06T03:48:36.204Z,-2.23
2019-01-06T03:51:23.329Z,-2.20
2019-01-06T03:54:14.772Z,-1.99
2019-01-06T03:57:01.621Z,-1.84
2019-01-06T03:59:44.491Z,-1.78
2019-01-06T04:02:47.982Z,-1.92
2019-01-06T04:05:45.489Z,-1.96
2019-01-06T04:08:32.600Z,-1.94
2019-01-06T04:11:19.884Z,-1.71
2019-01-06T04:14:14.010Z,-1.67
2019-01-06T04:17:05.571Z,-1.41
2019-01-06T04:19:47.507Z,-1.41
2019-01-06T04:22:34.953Z,-1.49
2019-01-06T04:25:26.206Z,-1.56
2019-01-06T04:28:14.639Z,-1.66
2019-01-06T04:31:01.679Z,-1.64
2019-01-06T04:33:50.014Z,-1.64
2019-01-06T04:36:37.209Z,-1.49
2019-01-06T04:39:36.744Z,-1.49
2019-01-06T04:42:34.619Z,-1.52
2019-01-06T04:45:21.962Z,-1.42
2019-01-06T04:48:09.365Z,-1.42
2019-01-06T04:50:56.605Z,-1.32
2019-01-06T04:53:43.552Z,-1.32
2019-01-06T04:56:34.995Z,-1.13
2019-01-06T04:59:29.586Z,-1.13
2019-01-06T05:02:26.827Z,-1.18
2019-01-06T05:05:13.801Z,-1.07
2019-01-06T05:08:19.959Z,-1.23
2019-01-06T05:11:07.306Z,-1.26
2019-01-06T05:13:54.766Z,-1.26
2019-01-06T05:16:51.242Z,-1.14
2019-01-06T05:19:38.704Z,-1.11
2019-01-06T05:22:25.997Z,-1.22
2019-01-06T05:25:29.473Z,-1.19
2019-01-06T05:28:20.335Z,-1.07
2019-01-06T05:31:14.605Z,-0.98
2019-01-06T05:34:06.880Z,-0.98
2019-01-06T05:36:53.305Z,-1.08
2019-01-06T05:39:48.106Z,-0.97
2019-01-06T05:42:40.928Z,-1.17
2019-01-06T05:45:32.026Z,-1.00
2019-01-06T05:48:35.650Z,-0.99
2019-01-06T05:51:24.088Z,-0.99
2019-01-06T05:54:11.036Z,-1.07
2019-01-06T05:57:08.703Z,-1.10
2019-01-06T05:59:55.995Z,-1.10
2019-01-06T06:02:53.882Z,-1.08
2019-01-06T06:05:50.417Z,-1.10
2019-01-06T06:08:38.738Z,-0.95
2019-01-06T06:11:29.467Z,-0.89
2019-01-06T06:14:16.761Z,-0.86
2019-01-06T06:17:03.983Z,-0.83
2019-01-06T06:19:50.952Z,-0.87
2019-01-06T06:22:38.091Z,-0.79
2019-01-06T06:25:25.061Z,-0.56
2019-01-06T06:28:16.565Z,-0.62
2019-01-06T06:31:01.751Z,-0.48
2019-01-06T06:33:45.168Z,-0.36
2019-01-06T06:36:42.418Z,-0.17
2019-01-06T06:39:29.682Z,-0.23
2019-01-06T06:42:28.232Z,-0.22
2019-01-06T06:45:25.913Z,-0.12
2019-01-06T06:48:32.504Z,0.00
2019-01-06T06:51:26.958Z,0.09
2019-01-06T06:54:14.111Z,0.21
2019-01-06T06:57:08.922Z,0.13
2019-01-06T07:00:01.343Z,0.10
2019-01-06T07:03:19.356Z,0.07
2019-01-06T07:06:15.103Z,-0.03
2019-01-06T07:09:15.696Z,-0.20
2019-01-06T07:12:22.296Z,-0.15
2019-01-06T07:15:28.757Z,-0.30
2019-01-06T07:18:24.482Z,-0.36
2019-01-06T07:21:12.958Z,-0.47
2019-01-06T07:24:10.741Z,-0.48
2019-01-06T07:26:58.231Z,-0.44
2019-01-06T07:29:52.783Z,-0.33
2019-01-06T07:32:53.298Z,-0.26
2019-01-06T07:35:40.610Z,-0.20
2019-01-06T07:38:31.772Z,-0.14
2019-01-06T07:41:32.326Z,-0.34
2019-01-06T07:44:19.229Z,-0.32
2019-01-06T07:47:23.051Z,-0.48
2019-01-06T07:50:10.240Z,-0.61
2019-01-06T07:53:04.995Z,-0.61
2019-01-06T07:55:52.347Z,-0.41
2019-01-06T07:58:43.417Z,-0.35
2019-01-06T08:01:46.851Z,-0.25
2019-01-06T08:04:33.707Z,-0.21
2019-01-06T08:07:37.135Z,-0.18
2019-01-06T08:10:31.925Z,-0.08
2019-01-06T08:13:20.350Z,-0.08
2019-01-06T08:16:04.067Z,-0.06
2019-01-06T08:18:51.088Z,-0.06
2019-01-06T08:21:38.281Z,0.02
2019-01-06T08:24:36.004Z,0.13
2019-01-06T08:27:36.744Z,0.18
2019-01-06T08:30:24.630Z,0.25
2019-01-06T08:33:17.496Z,0.42
2019-01-06T08:36:02.738Z,0.48
2019-01-06T08:38:54.175Z,0.52
2019-01-06T08:41:42.451Z,0.64
2019-01-06T08:44:22.579Z,0.63
2019-01-06T08:47:09.710Z,0.71
2019-01-06T08:50:01.048Z,0.86
2019-01-06T08:53:04.804Z,0.88
2019-01-06T08:55:53.995Z,0.73
2019-01-06T08:58:40.982Z,0.66
2019-01-06T09:01:32.663Z,0.64
2019-01-06T09:04:20.083Z,0.64
2019-01-06T09:07:08.500Z,0.67
2019-01-06T09:10:02.623Z,0.74
2019-01-06T09:12:54.064Z,0.77
2019-01-06T09:15:41.254Z,0.80
2019-01-06T09:18:35.743Z,0.90
2019-01-06T09:21:22.964Z,1.01
2019-01-06T09:24:05.237Z,1.12
2019-01-06T09:27:05.712Z,1.14
2019-01-06T09:29:50.143Z,1.24
2019-01-06T09:32:36.997Z,1.18
2019-01-06T09:35:37.364Z,1.24
2019-01-06T09:38:28.637Z,1.30
2019-01-06T09:41:17.045Z,1.35
2019-01-06T09:44:08.213Z,1.37
2019-01-06T09:46:48.426Z,1.41
2019-01-06T09:49:45.953Z,1.49
2019-01-06T09:52:48.422Z,1.62
2019-01-06T09:55:35.646Z,1.84
2019-01-06T09:58:30.161Z,1.97
2019-01-06T10:01:21.412Z,2.03
2019-01-06T10:04:08.798Z,2.04
2019-01-06T10:06:55.850Z,1.91
2019-01-06T10:09:50.666Z,2.03
2019-01-06T10:12:37.945Z,2.14
2019-01-06T10:15:25.360Z,2.15
2019-01-06T10:18:25.744Z,2.06
2019-01-06T10:21:22.607Z,1.94
2019-01-06T10:24:10.943Z,1.81
2019-01-06T10:27:05.203Z,1.70
2019-01-06T10:29:52.619Z,1.73
2019-01-06T10:32:41.090Z,1.75
2019-01-06T10:35:28.434Z,1.74
2019-01-06T10:38:19.602Z,1.70
2019-01-06T10:41:10.871Z,1.69
2019-01-06T10:43:59.301Z,1.64
2019-01-06T10:46:46.409Z,1.61
2019-01-06T10:49:46.956Z,1.41
2019-01-06T10:52:34.065Z,1.39
2019-01-06T10:55:21.153Z,1.44
2019-01-06T10:58:18.934Z,1.58
2019-01-06T11:01:10.192Z,1.81
2019-01-06T11:04:16.949Z,2.15
2019-01-06T11:07:13.572Z,2.44
2019-01-06T11:10:17.299Z,2.84
2019-01-06T11:13:04.179Z,3.04
2019-01-06T11:16:04.554Z,3.04
2019-01-06T11:18:51.856Z,2.99
2019-01-06T11:21:29.951Z,2.83
2019-01-06T11:24:17.035Z,2.75
2019-01-06T11:27:16.835Z,2.71
2019-01-06T11:30:23.570Z,2.75
2019-01-06T11:33:17.684Z,2.67
2019-01-06T11:36:04.506Z,2.64
2019-01-06T11:38:52.891Z,2.70
2019-01-06T11:41:39.855Z,2.77
2019-01-06T11:44:29.288Z,2.85
2019-01-06T11:47:16.495Z,3.00
2019-01-06T11:50:13.784Z,3.26
2019-01-06T11:53:04.207Z,3.41
2019-01-06T11:56:10.802Z,3.48
2019-01-06T11:58:57.577Z,3.38
2019-01-06T12:01:51.771Z,3.17
2019-01-06T12:04:38.843Z,3.09
2019-01-06T12:07:27.154Z,3.02
2019-01-06T12:10:21.529Z,2.97
2019-01-06T12:13:09.034Z,2.82
2019-01-06T12:16:03.650Z,2.75
2019-01-06T12:18:50.794Z,2.71
2019-01-06T12:21:51.530Z,2.60
2019-01-06T12:24:48.895Z,2.62
2019-01-06T12:27:43.072Z,2.60
2019-01-06T12:30:38.091Z,2.49
2019-01-06T12:33:32.471Z,2.46
2019-01-06T12:36:26.763Z,2.35
2019-01-06T12:39:21.085Z,2.20
2019-01-06T12:42:21.706Z,2.14
2019-01-06T12:45:10.079Z,2.12
2019-01-06T12:47:57.034Z,2.11
2019-01-06T12:50:53.512Z,2.08
2019-01-06T12:53:50.868Z,2.01
2019-01-06T12:56:51.593Z,2.04
2019-01-06T12:59:38.675Z,2.07
2019-01-06T13:02:19.143Z,2.08
2019-01-06T13:05:22.844Z,2.07
2019-01-06T13:08:17.359Z,2.19
2019-01-06T13:11:05.717Z,2.12
2019-01-06T13:14:00.231Z,2.08
2019-01-06T13:17:03.688Z,2.01
2019-01-06T13:19:57.758Z,2.14
2019-01-06T13:23:01.348Z,2.10
2019-01-06T13:26:01.464Z,2.25
2019-01-06T13:28:51.451Z,2.19
2019-01-06T13:31:38.449Z,2.22
2019-01-06T13:34:40.272Z,2.24
2019-01-06T13:37:28.658Z,2.22
2019-01-06T13:40:19.419Z,2.20
2019-01-06T13:43:18.054Z,2.20
2019-01-06T13:46:10.855Z,2.15
2019-01-06T13:48:56.843Z,2.08
2019-01-06T13:51:44.102Z,1.98
2019-01-06T13:54:32.485Z,2.03
2019-01-06T13:57:24.105Z,2.05
2019-01-06T14:00:15.566Z,1.98
2019-01-06T14:03:18.896Z,2.01
2019-01-06T14:06:21.112Z,2.03
2019-01-06T14:09:08.809Z,1.91
2019-01-06T14:11:48.859Z,1.86
2019-01-06T14:14:37.184Z,1.80
2019-01-06T14:17:30.893Z,1.71
2019-01-06T14:20:38.261Z,1.69
2019-01-06T14:23:25.669Z,1.68
2019-01-06T14:26:13.105Z,1.56
2019-01-06T14:29:01.458Z,1.50
2019-01-06T14:31:48.657Z,1.60
2019-01-06T14:34:34.458Z,1.60
2019-01-06T14:37:34.867Z,1.58
2019-01-06T14:40:32.685Z,1.55
2019-01-06T14:43:20.012Z,1.52
2019-01-06T14:46:19.702Z,1.50
2019-01-06T14:49:08.530Z,1.47
2019-01-06T14:52:06.211Z,1.54
2019-01-06T14:55:03.012Z,1.55
2019-01-06T14:57:50.079Z,1.52
2019-01-06T15:00:41.400Z,1.45
2019-01-06T15:03:28.666Z,1.29
2019-01-06T15:06:14.440Z,1.29
2019-01-06T15:09:01.716Z,1.33
2019-01-06T15:11:52.056Z,1.37
2019-01-06T15:14:55.377Z,1.34
2019-01-06T15:17:40.521Z,1.39
2019-01-06T15:20:28.516Z,1.36
2019-01-06T15:23:33.053Z,1.35
2019-01-06T15:26:21.411Z,1.51
2019-01-06T15:29:22.082Z,1.57
2019-01-06T15:32:09.407Z,1.51
2019-01-06T15:34:57.044Z,1.49
2019-01-06T15:37:44.247Z,1.43
2019-01-06T15:40:18.447Z,1.40
2019-01-06T15:43:05.704Z,1.35
2019-01-06T15:45:53.207Z,1.35
2019-01-06T15:48:40.257Z,1.38
2019-01-06T15:51:26.323Z,1.31
2019-01-06T15:54:17.675Z,1.18
2019-01-06T15:57:21.515Z,1.16
2019-01-06T16:00:09.890Z,1.08
2019-01-06T16:02:55.072Z,1.13
2019-01-06T16:05:49.365Z,1.23
2019-01-06T16:08:39.876Z,1.21
2019-01-06T16:11:27.045Z,1.24
2019-01-06T16:14:30.910Z,1.15
2019-01-06T16:17:18.540Z,1.11
2019-01-06T16:20:01.674Z,1.07
2019-01-06T16:22:48.995Z,1.13
2019-01-06T16:25:51.276Z,1.15
2019-01-06T16:28:38.666Z,1.24
2019-01-06T16:31:30.068Z,1.15
2019-01-06T16:34:17.519Z,1.12
2019-01-06T16:37:10.567Z,1.16
2019-01-06T16:40:17.088Z,1.16
2019-01-06T16:43:08.497Z,1.15
2019-01-06T16:45:56.919Z,1.14
2019-01-06T16:48:48.431Z,1.13
2019-01-06T16:51:55.277Z,1.13
2019-01-06T16:54:46.421Z,1.09
2019-01-06T16:57:53.140Z,1.10
2019-01-06T17:00:42.492Z,1.25
2019-01-06T17:03:29.906Z,1.27
2019-01-06T17:06:17.144Z,1.23
2019-01-06T17:09:04.077Z,1.14
2019-01-06T17:11:51.160Z,1.14
2019-01-06T17:14:41.350Z,1.10
2019-01-06T17:17:28.692Z,1.06
2019-01-06T17:20:16.095Z,0.99
2019-01-06T17:23:13.614Z,1.16
2019-01-06T17:25:55.040Z,1.16
2019-01-06T17:28:42.484Z,1.16
2019-01-06T17:31:37.372Z,1.17
2019-01-06T17:34:31.722Z,1.11
2019-01-06T17:37:20.102Z,1.11
2019-01-06T17:40:23.923Z,1.14
2019-01-06T17:43:12.333Z,1.26
2019-01-06T17:45:59.308Z,1.41
2019-01-06T17:48:50.719Z,1.40
2019-01-06T17:51:49.288Z,1.32
2019-01-06T17:54:36.588Z,1.30
2019-01-06T17:57:23.900Z,1.26
2019-01-06T18:00:21.543Z,1.20
2019-01-06T18:03:09.855Z,1.18
2019-01-06T18:06:04.514Z,1.19
2019-01-06T18:08:52.334Z,1.23
2019-01-06T18:11:47.816Z,1.25
2019-01-06T18:14:35.357Z,1.22
2019-01-06T18:17:22.543Z,1.15
2019-01-06T18:20:13.775Z,1.12
2019-01-06T18:23:02.166Z,1.20
2019-01-06T18:25:56.428Z,1.28
2019-01-06T18:28:52.211Z,1.33
2019-01-06T18:31:58.927Z,1.28
2019-01-06T18:34:45.829Z,1.33
2019-01-06T18:37:49.101Z,1.36
2019-01-06T18:40:52.679Z,1.36
2019-01-06T18:43:47.244Z,1.14
2019-01-06T18:46:54.119Z,1.27
2019-01-06T18:49:54.917Z,1.27
2019-01-06T18:52:45.110Z,1.41
2019-01-06T18:55:45.618Z,1.32
2019-01-06T18:58:37.271Z,1.42
2019-01-06T19:01:37.240Z,1.43
2019-01-06T19:04:37.979Z,1.34
2019-01-06T19:07:23.674Z,1.23
2019-01-06T19:10:21.264Z,1.25
2019-01-06T19:13:25.036Z,1.17
2019-01-06T19:16:12.107Z,1.32
2019-01-06T19:19:00.475Z,1.32
2019-01-06T19:21:47.528Z,1.28
2019-01-06T19:24:34.759Z,1.22
2019-01-06T19:27:21.878Z,1.27
2019-01-06T19:30:25.449Z,1.15
2019-01-06T19:33:29.039Z,1.21
2019-01-06T19:36:25.558Z,1.20
2019-01-06T19:39:20.128Z,1.15
2019-01-06T19:42:06.370Z,1.11
2019-01-06T19:45:13.027Z,1.07
2019-01-06T19:48:04.421Z,1.00
2019-01-06T19:50:51.698Z,0.98
2019-01-06T19:53:40.199Z,0.91
2019-01-06T19:56:29.148Z,1.01
2019-01-06T19:59:17.514Z,1.00
2019-01-06T20:02:07.084Z,1.01
2019-01-06T20:04:55.466Z,1.07
2019-01-06T20:07:45.664Z,1.05
2019-01-06T20:10:32.956Z,1.22
2019-01-06T20:13:20.335Z,1.20
2019-01-06T20:16:07.488Z,1.12
2019-01-06T20:18:58.349Z,1.11
2019-01-06T20:21:55.602Z,1.18
2019-01-06T20:24:47.440Z,1.11
2019-01-06T20:27:35.764Z,1.07
2019-01-06T20:30:39.428Z,1.14
2019-01-06T20:33:26.927Z,1.16
2019-01-06T20:36:14.249Z,1.10
2019-01-06T20:39:02.566Z,1.13
2019-01-06T20:41:58.675Z,1.14
2019-01-06T20:45:02.316Z,1.07
2019-01-06T20:47:49.626Z,0.99
2019-01-06T20:50:39.380Z,0.97
2019-01-06T20:53:43.213Z,0.93
2019-01-06T20:56:40.625Z,0.99
2019-01-06T20:59:35.134Z,0.97
2019-01-06T21:02:39.458Z,0.96
2019-01-06T21:05:46.368Z,0.88
2019-01-06T21:08:35.160Z,0.80
2019-01-06T21:11:23.589Z,0.73
2019-01-06T21:14:12.006Z,0.72
2019-01-06T21:16:59.363Z,0.70
2019-01-06T21:19:50.415Z,0.73
2019-01-06T21:22:40.314Z,0.74
2019-01-06T21:25:28.740Z,0.70
2019-01-06T21:28:17.107Z,0.74
2019-01-06T21:31:05.445Z,0.74
2019-01-06T21:33:50.625Z,0.79
2019-01-06T21:36:33.685Z,0.86
2019-01-06T21:39:20.993Z,0.83
2019-01-06T21:42:14.277Z,0.83
2019-01-06T21:45:02.647Z,0.82
2019-01-06T21:47:57.165Z,0.87
2019-01-06T21:50:45.539Z,0.87
2019-01-06T21:53:33.870Z,0.92
2019-01-06T21:56:20.857Z,0.89
2019-01-06T21:59:24.699Z,0.86
2019-01-06T22:02:24.985Z,0.84
2019-01-06T22:05:13.438Z,0.93
2019-01-06T22:08:10.984Z,0.94
2019-01-06T22:10:58.364Z,0.98
2019-01-06T22:13:58.903Z,0.93
2019-01-06T22:16:45.859Z,0.87
2019-01-06T22:19:28.279Z,0.96
2019-01-06T22:22:19.683Z,0.89
2019-01-06T22:25:17.235Z,1.04
2019-01-06T22:28:04.159Z,1.13
2019-01-06T22:30:52.526Z,1.08
2019-01-06T22:33:39.735Z,0.98
2019-01-06T22:36:37.275Z,0.94
2019-01-06T22:39:25.188Z,1.00
2019-01-06T22:42:12.412Z,1.07
2019-01-06T22:45:03.499Z,1.12
2019-01-06T22:47:53.048Z,1.10
2019-01-06T22:50:44.475Z,0.96
2019-01-06T22:53:41.781Z,0.91
2019-01-06T22:56:26.967Z,0.87
2019-01-06T22:59:14.076Z,0.77
2019-01-06T23:02:11.715Z,0.76
2019-01-06T23:05:00.933Z,0.76
2019-01-06T23:07:47.891Z,0.72
2019-01-06T23:10:42.347Z,0.75
2019-01-06T23:13:43.080Z,0.73
2019-01-06T23:16:37.320Z,0.64
2019-01-06T23:19:28.579Z,0.69
2019-01-06T23:22:25.881Z,0.69
2019-01-06T23:25:16.619Z,0.83
2019-01-06T23:28:04.039Z,0.98
2019-01-06T23:31:10.599Z,0.83
2019-01-06T23:33:57.695Z,0.92
2019-01-06T23:37:03.918Z,0.90
2019-01-06T23:40:04.288Z,0.94
2019-01-06T23:42:52.744Z,0.99
2019-01-06T23:45:53.734Z,0.90
2019-01-06T23:48:38.992Z,0.78
2019-01-06T23:51:16.197Z,0.73
2019-01-06T23:54:07.588Z,0.70
2019-01-06T23:57:08.355Z,0.63
